sensor_id;sensor_type;location;lat;lon;timestamp;pressure;altitude;pressure_sealevel;temperature;humidity
49583;BME280;36329;48.816;44.624;2023-02-16T00:02:29;101193;;;-7.9;69.3
49583;BME280;36329;48.816;44.624;2023-02-16T00:05:33;101199;;;-8;70.1
49583;BME280;36329;48.816;44.624;2023-02-16T00:08:35;101198;;;-8.2;71
49583;BME280;36329;48.816;44.624;2023-02-16T00:11:37;101192;;;-8.1;70.6
49583;BME280;36329;48.816;44.624;2023-02-16T00:14:40;101197;;;-8.1;70.2
49583;BME280;36329;48.816;44.624;2023-02-16T00:17:42;101197;;;-8.3;70.1
49583;BME280;36329;48.816;44.624;2023-02-16T00:20:45;101191;;;-8.2;69.9
49583;BME280;36329;48.816;44.624;2023-02-16T00:23:47;101193;;;-8.4;69.8
49583;BME280;36329;48.816;44.624;2023-02-16T00:26:49;101192;;;-8.5;69.9
49583;BME280;36329;48.816;44.624;2023-02-16T00:30:05;101189;;;-8.7;70.7
49583;BME280;36329;48.816;44.624;2023-02-16T00:33:18;101193;;;-8.8;71.4
49583;BME280;36329;48.816;44.624;2023-02-16T00:36:20;101193;;;-8.9;71.2
49583;BME280;36329;48.816;44.624;2023-02-16T00:39:23;101191;;;-8.8;71.1
49583;BME280;36329;48.816;44.624;2023-02-16T00:42:28;101197;;;-8.9;71.6
49583;BME280;36329;48.816;44.624;2023-02-16T00:45:36;101195;;;-8.9;72.2
49583;BME280;36329;48.816;44.624;2023-02-16T00:48:38;101189;;;-8.9;71.6
49583;BME280;36329;48.816;44.624;2023-02-16T00:51:41;101201;;;-8.8;71.5
49583;BME280;36329;48.816;44.624;2023-02-16T00:54:43;101202;;;-8.6;70.6
49583;BME280;36329;48.816;44.624;2023-02-16T00:57:47;101196;;;-8.7;70.2
49583;BME280;36329;48.816;44.624;2023-02-16T01:00:52;101205;;;-8.9;70.6
49583;BME280;36329;48.816;44.624;2023-02-16T01:03:56;101210;;;-9;71.5
49583;BME280;36329;48.816;44.624;2023-02-16T01:06:59;101210;;;-9.2;70.9
49583;BME280;36329;48.816;44.624;2023-02-16T01:10:01;101212;;;-8.9;72
49583;BME280;36329;48.816;44.624;2023-02-16T01:13:09;101211;;;-8.9;70.9
49583;BME280;36329;48.816;44.624;2023-02-16T01:16:14;101217;;;-8.9;70.9
49583;BME280;36329;48.816;44.624;2023-02-16T01:19:17;101214;;;-8.7;70.2
49583;BME280;36329;48.816;44.624;2023-02-16T01:22:21;101215;;;-8.6;70.1
49583;BME280;36329;48.816;44.624;2023-02-16T01:25:26;101219;;;-8.6;69.5
49583;BME280;36329;48.816;44.624;2023-02-16T01:28:28;101221;;;-8.3;68.7
49583;BME280;36329;48.816;44.624;2023-02-16T01:31:31;101223;;;-8.7;69.1
49583;BME280;36329;48.816;44.624;2023-02-16T01:34:33;101221;;;-8.8;69.8
49583;BME280;36329;48.816;44.624;2023-02-16T01:37:36;101226;;;-8.8;70.2
49583;BME280;36329;48.816;44.624;2023-02-16T01:40:43;101219;;;-8.9;70.5
49583;BME280;36329;48.816;44.624;2023-02-16T01:43:50;101221;;;-8.6;69.4
49583;BME280;36329;48.816;44.624;2023-02-16T01:47:00;101217;;;-8.6;69
49583;BME280;36329;48.816;44.624;2023-02-16T01:50:21;101221;;;-8.9;67.9
49583;BME280;36329;48.816;44.624;2023-02-16T01:53:34;101227;;;-9.7;67.8
49583;BME280;36329;48.816;44.624;2023-02-16T01:56:42;101224;;;-10.2;70.3
49583;BME280;36329;48.816;44.624;2023-02-16T02:00:05;101224;;;-10.5;71.4
49583;BME280;36329;48.816;44.624;2023-02-16T02:03:15;101227;;;-10.6;73.8
49583;BME280;36329;48.816;44.624;2023-02-16T02:06:21;101230;;;-10.2;72.9
49583;BME280;36329;48.816;44.624;2023-02-16T02:09:27;101242;;;-9.9;71.9
49583;BME280;36329;48.816;44.624;2023-02-16T02:12:41;101237;;;-9.5;71.6
49583;BME280;36329;48.816;44.624;2023-02-16T02:15:58;101237;;;-9.6;70.6
49583;BME280;36329;48.816;44.624;2023-02-16T02:19:01;101233;;;-9.3;70.2
49583;BME280;36329;48.816;44.624;2023-02-16T02:22:15;101242;;;-9.3;70.6
49583;BME280;36329;48.816;44.624;2023-02-16T02:25:32;101241;;;-9.2;69.5
49583;BME280;36329;48.816;44.624;2023-02-16T02:28:46;101246;;;-9.3;67.9
49583;BME280;36329;48.816;44.624;2023-02-16T02:31:56;101246;;;-9;66.7
49583;BME280;36329;48.816;44.624;2023-02-16T02:35:10;101240;;;-9.3;68.1
49583;BME280;36329;48.816;44.624;2023-02-16T02:38:21;101241;;;-9.4;68.9
49583;BME280;36329;48.816;44.624;2023-02-16T02:41:29;101249;;;-9.6;69.4
49583;BME280;36329;48.816;44.624;2023-02-16T02:44:39;101243;;;-9.3;69
49583;BME280;36329;48.816;44.624;2023-02-16T02:47:45;101248;;;-9.6;67.7
49583;BME280;36329;48.816;44.624;2023-02-16T02:50:49;101250;;;-9.8;68.3
49583;BME280;36329;48.816;44.624;2023-02-16T02:53:54;101253;;;-9.8;68.5
49583;BME280;36329;48.816;44.624;2023-02-16T02:57:01;101252;;;-9.9;68.4
49583;BME280;36329;48.816;44.624;2023-02-16T03:00:11;101249;;;-9.9;68.3
49583;BME280;36329;48.816;44.624;2023-02-16T03:03:22;101254;;;-10;68.1
49583;BME280;36329;48.816;44.624;2023-02-16T03:06:29;101261;;;-9.8;67.9
49583;BME280;36329;48.816;44.624;2023-02-16T03:09:33;101265;;;-9.8;67.8
49583;BME280;36329;48.816;44.624;2023-02-16T03:12:35;101271;;;-9.4;68.5
49583;BME280;36329;48.816;44.624;2023-02-16T03:15:38;101266;;;-9.1;69.3
49583;BME280;36329;48.816;44.624;2023-02-16T03:18:42;101269;;;-8.8;68.9
49583;BME280;36329;48.816;44.624;2023-02-16T03:21:47;101268;;;-8.9;68.8
49583;BME280;36329;48.816;44.624;2023-02-16T03:24:49;101273;;;-8.9;68.9
49583;BME280;36329;48.816;44.624;2023-02-16T03:27:52;101268;;;-8.9;68.8
49583;BME280;36329;48.816;44.624;2023-02-16T03:30:57;101269;;;-8.9;68.5
49583;BME280;36329;48.816;44.624;2023-02-16T03:34:01;101269;;;-9.1;69.5
49583;BME280;36329;48.816;44.624;2023-02-16T03:37:03;101278;;;-9;69
49583;BME280;36329;48.816;44.624;2023-02-16T03:40:08;101284;;;-9.4;69.5
49583;BME280;36329;48.816;44.624;2023-02-16T03:43:10;101289;;;-9.4;70.2
49583;BME280;36329;48.816;44.624;2023-02-16T03:46:12;101292;;;-9.5;70.5
49583;BME280;36329;48.816;44.624;2023-02-16T03:49:14;101288;;;-9.2;70
49583;BME280;36329;48.816;44.624;2023-02-16T03:52:16;101297;;;-9.3;70
49583;BME280;36329;48.816;44.624;2023-02-16T03:55:18;101302;;;-9.3;69.2
49583;BME280;36329;48.816;44.624;2023-02-16T03:58:22;101299;;;-9.1;68.9
49583;BME280;36329;48.816;44.624;2023-02-16T04:01:24;101309;;;-9.2;68.4
49583;BME280;36329;48.816;44.624;2023-02-16T04:04:26;101312;;;-9.6;67.9
49583;BME280;36329;48.816;44.624;2023-02-16T04:07:28;101314;;;-9.9;67.9
49583;BME280;36329;48.816;44.624;2023-02-16T04:10:31;101312;;;-10;69.3
49583;BME280;36329;48.816;44.624;2023-02-16T04:13:33;101306;;;-9.6;71.7
49583;BME280;36329;48.816;44.624;2023-02-16T04:16:36;101312;;;-9.2;70.8
49583;BME280;36329;48.816;44.624;2023-02-16T04:19:44;101306;;;-9;71.1
49583;BME280;36329;48.816;44.624;2023-02-16T04:22:53;101304;;;-9.1;72.2
49583;BME280;36329;48.816;44.624;2023-02-16T04:25:57;101307;;;-9.3;74.6
49583;BME280;36329;48.816;44.624;2023-02-16T04:28:59;101310;;;-9.5;76.9
49583;BME280;36329;48.816;44.624;2023-02-16T04:32:07;101307;;;-9.5;78.2
49583;BME280;36329;48.816;44.624;2023-02-16T04:35:10;101318;;;-9.6;79.1
49583;BME280;36329;48.816;44.624;2023-02-16T04:38:17;101313;;;-9.5;78.2
49583;BME280;36329;48.816;44.624;2023-02-16T04:41:31;101309;;;-9.5;78.4
49583;BME280;36329;48.816;44.624;2023-02-16T04:44:44;101313;;;-9.1;77.3
49583;BME280;36329;48.816;44.624;2023-02-16T04:47:47;101313;;;-8.7;75.4
49583;BME280;36329;48.816;44.624;2023-02-16T04:50:56;101315;;;-8.6;73.6
49583;BME280;36329;48.816;44.624;2023-02-16T04:54:06;101305;;;-8.6;72.2
49583;BME280;36329;48.816;44.624;2023-02-16T04:57:10;101311;;;-8.8;72.4
49583;BME280;36329;48.816;44.624;2023-02-16T05:00:12;101315;;;-8.6;72.1
49583;BME280;36329;48.816;44.624;2023-02-16T05:03:16;101307;;;-8.3;71.4
49583;BME280;36329;48.816;44.624;2023-02-16T05:06:20;101320;;;-8.1;70.7
49583;BME280;36329;48.816;44.624;2023-02-16T05:09:23;101318;;;-8;69.5
49583;BME280;36329;48.816;44.624;2023-02-16T05:12:41;101317;;;-7.8;69.3
49583;BME280;36329;48.816;44.624;2023-02-16T05:15:46;101323;;;-7.5;68
49583;BME280;36329;48.816;44.624;2023-02-16T05:18:50;101323;;;-7.8;67.9
49583;BME280;36329;48.816;44.624;2023-02-16T05:22:01;101333;;;-7.5;68
49583;BME280;36329;48.816;44.624;2023-02-16T05:25:08;101333;;;-7.1;65.9
49583;BME280;36329;48.816;44.624;2023-02-16T05:28:12;101335;;;-7;64.5
49583;BME280;36329;48.816;44.624;2023-02-16T05:31:15;101331;;;-7.1;64.5
49583;BME280;36329;48.816;44.624;2023-02-16T05:34:23;101331;;;-7.6;66
49583;BME280;36329;48.816;44.624;2023-02-16T05:37:33;101334;;;-7.5;66.6
49583;BME280;36329;48.816;44.624;2023-02-16T05:40:43;101330;;;-6.9;65.9
49583;BME280;36329;48.816;44.624;2023-02-16T05:44:00;101335;;;-6.8;64.8
49583;BME280;36329;48.816;44.624;2023-02-16T05:47:05;101328;;;-6.9;64.3
49583;BME280;36329;48.816;44.624;2023-02-16T05:50:13;101336;;;-6.8;64.2
49583;BME280;36329;48.816;44.624;2023-02-16T05:53:21;101333;;;-6.6;63.8
49583;BME280;36329;48.816;44.624;2023-02-16T05:56:30;101335;;;-6.3;63.2
49583;BME280;36329;48.816;44.624;2023-02-16T05:59:36;101338;;;-5.8;61.3
49583;BME280;36329;48.816;44.624;2023-02-16T06:02:40;101338;;;-5.6;60
49583;BME280;36329;48.816;44.624;2023-02-16T06:05:43;101340;;;-5;59.1
49583;BME280;36329;48.816;44.624;2023-02-16T06:08:51;101340;;;-5.1;58
49583;BME280;36329;48.816;44.624;2023-02-16T06:12:00;101339;;;-5.2;59.5
49583;BME280;36329;48.816;44.624;2023-02-16T06:15:09;101343;;;-5.4;60.2
49583;BME280;36329;48.816;44.624;2023-02-16T06:18:24;101342;;;-6;61.6
49583;BME280;36329;48.816;44.624;2023-02-16T06:21:49;101340;;;-5.5;62.3
49583;BME280;36329;48.816;44.624;2023-02-16T06:24:58;101340;;;-5.3;60.7
49583;BME280;36329;48.816;44.624;2023-02-16T06:28:11;101341;;;-5.4;61
49583;BME280;36329;48.816;44.624;2023-02-16T06:31:22;101336;;;-6;61.4
49583;BME280;36329;48.816;44.624;2023-02-16T06:34:39;101343;;;-5.9;62.6
49583;BME280;36329;48.816;44.624;2023-02-16T06:37:56;101336;;;-5;60.4
49583;BME280;36329;48.816;44.624;2023-02-16T06:41:01;101335;;;-4.2;58.5
49583;BME280;36329;48.816;44.624;2023-02-16T06:44:10;101342;;;-3.3;55.3
49583;BME280;36329;48.816;44.624;2023-02-16T06:47:14;101338;;;-2.9;53.3
49583;BME280;36329;48.816;44.624;2023-02-16T06:50:27;101335;;;-2.9;53.6
49583;BME280;36329;48.816;44.624;2023-02-16T06:53:31;101340;;;-2.9;52.6
49583;BME280;36329;48.816;44.624;2023-02-16T06:56:39;101326;;;-2.3;52.1
49583;BME280;36329;48.816;44.624;2023-02-16T06:59:47;101329;;;-2.3;51.2
49583;BME280;36329;48.816;44.624;2023-02-16T07:02:56;101335;;;-1.6;51.2
49583;BME280;36329;48.816;44.624;2023-02-16T07:05:59;101329;;;-2.1;49.7
49583;BME280;36329;48.816;44.624;2023-02-16T07:09:02;101333;;;-2;50.5
49583;BME280;36329;48.816;44.624;2023-02-16T07:12:06;101324;;;-2;50.5
49583;BME280;36329;48.816;44.624;2023-02-16T07:15:15;101336;;;-1.7;49.9
49583;BME280;36329;48.816;44.624;2023-02-16T07:18:23;101332;;;-1.1;49.3
49583;BME280;36329;48.816;44.624;2023-02-16T07:21:34;101340;;;-0.5;47.1
49583;BME280;36329;48.816;44.624;2023-02-16T07:24:47;101341;;;-0.3;46.5
49583;BME280;36329;48.816;44.624;2023-02-16T07:28:03;101352;;;-0.8;46.1
49583;BME280;36329;48.816;44.624;2023-02-16T07:31:13;101346;;;-0.5;47.2
49583;BME280;36329;48.816;44.624;2023-02-16T07:34:31;101351;;;0.5;44.6
49583;BME280;36329;48.816;44.624;2023-02-16T07:37:39;101346;;;0.8;43.1
49583;BME280;36329;48.816;44.624;2023-02-16T07:40:41;101354;;;1.4;42.2
49583;BME280;36329;48.816;44.624;2023-02-16T07:43:47;101360;;;2.5;42.3
49583;BME280;36329;48.816;44.624;2023-02-16T07:46:51;101361;;;2.4;39.7
49583;BME280;36329;48.816;44.624;2023-02-16T07:49:59;101364;;;0.9;41.9
49583;BME280;36329;48.816;44.624;2023-02-16T07:53:15;101359;;;0.7;43.4
49583;BME280;36329;48.816;44.624;2023-02-16T07:56:34;101362;;;0.5;43.9
49583;BME280;36329;48.816;44.624;2023-02-16T07:59:58;101369;;;1;43.4
49583;BME280;36329;48.816;44.624;2023-02-16T08:03:03;101368;;;1.9;41.8
49583;BME280;36329;48.816;44.624;2023-02-16T08:06:05;101374;;;1.8;41
49583;BME280;36329;48.816;44.624;2023-02-16T08:09:08;101372;;;1.1;42.1
49583;BME280;36329;48.816;44.624;2023-02-16T08:12:12;101373;;;0.7;42.4
49583;BME280;36329;48.816;44.624;2023-02-16T08:15:18;101374;;;1;42.4
49583;BME280;36329;48.816;44.624;2023-02-16T08:18:20;101375;;;1.2;41.4
49583;BME280;36329;48.816;44.624;2023-02-16T08:21:25;101377;;;0.3;43.9
49583;BME280;36329;48.816;44.624;2023-02-16T08:24:30;101388;;;-0.6;45.5
49583;BME280;36329;48.816;44.624;2023-02-16T08:27:32;101389;;;-0.9;46.9
49583;BME280;36329;48.816;44.624;2023-02-16T08:30:34;101401;;;-0.5;46.7
49583;BME280;36329;48.816;44.624;2023-02-16T08:33:37;101384;;;0.2;45.3
49583;BME280;36329;48.816;44.624;2023-02-16T08:36:41;101380;;;0.9;43.4
49583;BME280;36329;48.816;44.624;2023-02-16T08:39:44;101383;;;1.5;42.1
49583;BME280;36329;48.816;44.624;2023-02-16T08:42:46;101385;;;1.7;41.5
49583;BME280;36329;48.816;44.624;2023-02-16T08:45:48;101382;;;2.7;39.3
49583;BME280;36329;48.816;44.624;2023-02-16T08:48:50;101376;;;2.8;38.8
49583;BME280;36329;48.816;44.624;2023-02-16T08:51:54;101378;;;2.5;39.7
49583;BME280;36329;48.816;44.624;2023-02-16T08:54:56;101380;;;2.7;39.1
49583;BME280;36329;48.816;44.624;2023-02-16T08:57:59;101380;;;3.1;38.2
49583;BME280;36329;48.816;44.624;2023-02-16T09:01:03;101384;;;3.3;37.7
49583;BME280;36329;48.816;44.624;2023-02-16T09:04:12;101383;;;3.3;36.9
49583;BME280;36329;48.816;44.624;2023-02-16T09:07:14;101388;;;3.3;37.6
49583;BME280;36329;48.816;44.624;2023-02-16T09:10:17;101386;;;3.8;37
49583;BME280;36329;48.816;44.624;2023-02-16T09:13:19;101387;;;3.4;36.8
49583;BME280;36329;48.816;44.624;2023-02-16T09:16:22;101387;;;3.5;37
49583;BME280;36329;48.816;44.624;2023-02-16T09:19:24;101388;;;4.6;35.2
49583;BME280;36329;48.816;44.624;2023-02-16T09:22:26;101382;;;4.1;35.6
49583;BME280;36329;48.816;44.624;2023-02-16T09:25:28;101382;;;4;35.6
49583;BME280;36329;48.816;44.624;2023-02-16T09:28:30;101386;;;3.6;36.7
49583;BME280;36329;48.816;44.624;2023-02-16T09:31:33;101383;;;4.7;35.4
49583;BME280;36329;48.816;44.624;2023-02-16T09:34:36;101375;;;4.3;35.6
49583;BME280;36329;48.816;44.624;2023-02-16T09:37:38;101378;;;3.5;36.4
49583;BME280;36329;48.816;44.624;2023-02-16T09:40:40;101380;;;3;37.8
49583;BME280;36329;48.816;44.624;2023-02-16T09:43:46;101379;;;3;37.4
49583;BME280;36329;48.816;44.624;2023-02-16T09:46:50;101384;;;3;37.8
49583;BME280;36329;48.816;44.624;2023-02-16T09:50:03;101379;;;2.1;39.3
49583;BME280;36329;48.816;44.624;2023-02-16T09:53:32;101376;;;1.6;41.7
49583;BME280;36329;48.816;44.624;2023-02-16T09:56:50;101373;;;-0.1;44.2
49583;BME280;36329;48.816;44.624;2023-02-16T10:00:02;101371;;;0;46.3
49583;BME280;36329;48.816;44.624;2023-02-16T10:03:33;101377;;;0.5;46.2
49583;BME280;36329;48.816;44.624;2023-02-16T10:06:57;101372;;;0.4;45.2
49583;BME280;36329;48.816;44.624;2023-02-16T10:10:14;101372;;;1.1;43.8
49583;BME280;36329;48.816;44.624;2023-02-16T10:13:36;101362;;;1.9;42.2
49583;BME280;36329;48.816;44.624;2023-02-16T10:16:51;101369;;;1.9;41.7
49583;BME280;36329;48.816;44.624;2023-02-16T10:20:00;101364;;;2.2;41.7
49583;BME280;36329;48.816;44.624;2023-02-16T10:23:28;101368;;;2;40.6
49583;BME280;36329;48.816;44.624;2023-02-16T10:26:50;101370;;;1.7;41.5
49583;BME280;36329;48.816;44.624;2023-02-16T10:30:01;101377;;;1.2;42.6
49583;BME280;36329;48.816;44.624;2023-02-16T10:33:27;101381;;;1.6;42.8
49583;BME280;36329;48.816;44.624;2023-02-16T10:36:53;101382;;;1.9;42.1
49583;BME280;36329;48.816;44.624;2023-02-16T10:40:27;101384;;;1.8;41
49583;BME280;36329;48.816;44.624;2023-02-16T10:43:42;101383;;;2.6;39.8
49583;BME280;36329;48.816;44.624;2023-02-16T10:47:21;101381;;;2.6;39.9
49583;BME280;36329;48.816;44.624;2023-02-16T10:50:39;101383;;;2.2;40.6
49583;BME280;36329;48.816;44.624;2023-02-16T10:54:02;101382;;;2.4;40.6
49583;BME280;36329;48.816;44.624;2023-02-16T10:57:22;101381;;;2.1;41.2
49583;BME280;36329;48.816;44.624;2023-02-16T11:00:41;101377;;;2.4;40
49583;BME280;36329;48.816;44.624;2023-02-16T11:03:55;101374;;;2.4;40.3
49583;BME280;36329;48.816;44.624;2023-02-16T11:07:08;101383;;;2.1;40.5
49583;BME280;36329;48.816;44.624;2023-02-16T11:10:35;101381;;;2.3;40.6
49583;BME280;36329;48.816;44.624;2023-02-16T11:13:57;101382;;;2.3;41
49583;BME280;36329;48.816;44.624;2023-02-16T11:17:26;101382;;;1.9;41.6
49583;BME280;36329;48.816;44.624;2023-02-16T11:20:52;101379;;;2.1;40.2
49583;BME280;36329;48.816;44.624;2023-02-16T11:24:11;101380;;;2.2;40.6
49583;BME280;36329;48.816;44.624;2023-02-16T11:27:23;101382;;;2.6;40.3
49583;BME280;36329;48.816;44.624;2023-02-16T11:30:33;101379;;;2.1;40.9
49583;BME280;36329;48.816;44.624;2023-02-16T11:33:36;101377;;;0.7;43.5
49583;BME280;36329;48.816;44.624;2023-02-16T11:36:41;101384;;;0.4;44.5
49583;BME280;36329;48.816;44.624;2023-02-16T11:39:51;101384;;;-0.3;46.1
49583;BME280;36329;48.816;44.624;2023-02-16T11:42:57;101391;;;-0.5;47.5
49583;BME280;36329;48.816;44.624;2023-02-16T11:46:18;101395;;;-0.9;47.6
49583;BME280;36329;48.816;44.624;2023-02-16T11:49:41;101400;;;-0.9;47.2
49583;BME280;36329;48.816;44.624;2023-02-16T11:52:45;101394;;;-0.9;47.7
49583;BME280;36329;48.816;44.624;2023-02-16T11:55:50;101406;;;-1.2;48.7
49583;BME280;36329;48.816;44.624;2023-02-16T11:59:09;101413;;;-0.8;48.2
49583;BME280;36329;48.816;44.624;2023-02-16T12:06:32;101419;;;-0.9;47.8
49583;BME280;36329;48.816;44.624;2023-02-16T12:09:48;101421;;;-1.3;48.5
49583;BME280;36329;48.816;44.624;2023-02-16T12:13:20;101423;;;-1.3;49.2
49583;BME280;36329;48.816;44.624;2023-02-16T12:19:56;101414;;;-1.3;49.7
49583;BME280;36329;48.816;44.624;2023-02-16T12:23:17;101421;;;-1.7;50.7
49583;BME280;36329;48.816;44.624;2023-02-16T12:26:35;101425;;;-1.7;51.1
49583;BME280;36329;48.816;44.624;2023-02-16T12:30:00;101419;;;-1.5;51.1
49583;BME280;36329;48.816;44.624;2023-02-16T12:33:26;101426;;;-1.6;50.5
49583;BME280;36329;48.816;44.624;2023-02-16T12:37:01;101432;;;-2;52.8
49583;BME280;36329;48.816;44.624;2023-02-16T12:40:23;101444;;;-2;53.5
49583;BME280;36329;48.816;44.624;2023-02-16T12:43:39;101445;;;-2;53.6
49583;BME280;36329;48.816;44.624;2023-02-16T12:46:56;101443;;;-2;54.7
49583;BME280;36329;48.816;44.624;2023-02-16T12:50:15;101451;;;-2.3;54.2
49583;BME280;36329;48.816;44.624;2023-02-16T12:53:26;101450;;;-2.3;54.7
49583;BME280;36329;48.816;44.624;2023-02-16T12:56:46;101457;;;-2.4;54.6
49583;BME280;36329;48.816;44.624;2023-02-16T13:00:00;101454;;;-2.6;55.8
49583;BME280;36329;48.816;44.624;2023-02-16T13:03:21;101459;;;-2.4;55.2
49583;BME280;36329;48.816;44.624;2023-02-16T13:06:30;101460;;;-2.7;56
49583;BME280;36329;48.816;44.624;2023-02-16T13:09:57;101461;;;-2.5;55.2
49583;BME280;36329;48.816;44.624;2023-02-16T13:13:09;101467;;;-2.7;55.7
49583;BME280;36329;48.816;44.624;2023-02-16T13:16:35;101463;;;-2.5;55.9
49583;BME280;36329;48.816;44.624;2023-02-16T13:19:41;101467;;;-2.8;56.9
49583;BME280;36329;48.816;44.624;2023-02-16T13:23:18;101466;;;-2.7;57.7
49583;BME280;36329;48.816;44.624;2023-02-16T13:26:30;101469;;;-2.6;57.6
49583;BME280;36329;48.816;44.624;2023-02-16T13:29:50;101475;;;-2.6;57.5
49583;BME280;36329;48.816;44.624;2023-02-16T13:33:03;101475;;;-3.2;59.4
49583;BME280;36329;48.816;44.624;2023-02-16T13:36:23;101475;;;-3.3;60.5
49583;BME280;36329;48.816;44.624;2023-02-16T13:39:45;101476;;;-3;60.4
49583;BME280;36329;48.816;44.624;2023-02-16T13:46:42;101479;;;-3.4;62.3
49583;BME280;36329;48.816;44.624;2023-02-16T13:49:55;101480;;;-3.4;63
49583;BME280;36329;48.816;44.624;2023-02-16T13:53:16;101491;;;-3.3;62.7
49583;BME280;36329;48.816;44.624;2023-02-16T13:56:30;101496;;;-3.2;62.7
49583;BME280;36329;48.816;44.624;2023-02-16T13:59:48;101496;;;-3.2;63.4
49583;BME280;36329;48.816;44.624;2023-02-16T14:03:00;101498;;;-3.3;64.5
49583;BME280;36329;48.816;44.624;2023-02-16T14:09:48;101496;;;-3.5;65.7
49583;BME280;36329;48.816;44.624;2023-02-16T14:13:10;101500;;;-3.5;65.8
49583;BME280;36329;48.816;44.624;2023-02-16T14:16:35;101503;;;-3.7;63.8
49583;BME280;36329;48.816;44.624;2023-02-16T14:19:59;101506;;;-3.8;64
49583;BME280;36329;48.816;44.624;2023-02-16T14:23:32;101502;;;-3.5;63.7
49583;BME280;36329;48.816;44.624;2023-02-16T14:26:56;101500;;;-3.7;62.3
49583;BME280;36329;48.816;44.624;2023-02-16T14:30:02;101504;;;-4;62.5
49583;BME280;36329;48.816;44.624;2023-02-16T14:33:21;101505;;;-4.3;62.8
49583;BME280;36329;48.816;44.624;2023-02-16T14:40:11;101516;;;-4;62.9
49583;BME280;36329;48.816;44.624;2023-02-16T14:43:29;101516;;;-4.1;62.5
49583;BME280;36329;48.816;44.624;2023-02-16T14:46:57;101517;;;-4;62.3
49583;BME280;36329;48.816;44.624;2023-02-16T14:50:46;101522;;;-4;62
49583;BME280;36329;48.816;44.624;2023-02-16T14:54:05;101517;;;-4.3;62.2
49583;BME280;36329;48.816;44.624;2023-02-16T14:57:30;101522;;;-4.6;63.4
49583;BME280;36329;48.816;44.624;2023-02-16T15:01:12;101520;;;-4.8;64.5
49583;BME280;36329;48.816;44.624;2023-02-16T15:04:44;101523;;;-4.7;64.9
49583;BME280;36329;48.816;44.624;2023-02-16T15:07:51;101529;;;-4.8;65.1
49583;BME280;36329;48.816;44.624;2023-02-16T15:11:24;101527;;;-4.8;65.8
49583;BME280;36329;48.816;44.624;2023-02-16T15:15:17;101527;;;-5.1;66.3
49583;BME280;36329;48.816;44.624;2023-02-16T15:18:44;101531;;;-5.5;68.6
49583;BME280;36329;48.816;44.624;2023-02-16T15:22:32;101534;;;-5.5;69.2
49583;BME280;36329;48.816;44.624;2023-02-16T15:25:53;101531;;;-5.2;68.8
49583;BME280;36329;48.816;44.624;2023-02-16T15:29:23;101535;;;-5.1;67.8
49583;BME280;36329;48.816;44.624;2023-02-16T15:33:03;101539;;;-5.2;68.3
49583;BME280;36329;48.816;44.624;2023-02-16T15:36:26;101532;;;-5.3;69.1
49583;BME280;36329;48.816;44.624;2023-02-16T15:39:39;101539;;;-5.4;69.5
49583;BME280;36329;48.816;44.624;2023-02-16T15:42:49;101534;;;-5.4;70.4
49583;BME280;36329;48.816;44.624;2023-02-16T15:46:14;101546;;;-5.2;70.5
49583;BME280;36329;48.816;44.624;2023-02-16T15:49:32;101541;;;-5.1;69.3
49583;BME280;36329;48.816;44.624;2023-02-16T15:52:36;101550;;;-5.2;69.9
49583;BME280;36329;48.816;44.624;2023-02-16T15:56:12;101548;;;-5.2;69.8
49583;BME280;36329;48.816;44.624;2023-02-16T15:59:33;101547;;;-5.3;70.3
49583;BME280;36329;48.816;44.624;2023-02-16T16:02:54;101550;;;-5.1;70.1
49583;BME280;36329;48.816;44.624;2023-02-16T16:06:02;101549;;;-4.9;69.2
49583;BME280;36329;48.816;44.624;2023-02-16T16:09:20;101549;;;-4.8;69
49583;BME280;36329;48.816;44.624;2023-02-16T16:13:00;101559;;;-4.7;68.6
49583;BME280;36329;48.816;44.624;2023-02-16T16:16:29;101555;;;-4.9;69.2
49583;BME280;36329;48.816;44.624;2023-02-16T16:19:55;101559;;;-5;69.9
49583;BME280;36329;48.816;44.624;2023-02-16T16:23:22;101558;;;-5;70.4
49583;BME280;36329;48.816;44.624;2023-02-16T16:26:59;101562;;;-5;70.5
49583;BME280;36329;48.816;44.624;2023-02-16T16:30:11;101567;;;-4.9;70.1
49583;BME280;36329;48.816;44.624;2023-02-16T16:33:24;101568;;;-5;70.1
49583;BME280;36329;48.816;44.624;2023-02-16T16:36:32;101570;;;-5;70.4
49583;BME280;36329;48.816;44.624;2023-02-16T16:39:59;101578;;;-4.8;69
49583;BME280;36329;48.816;44.624;2023-02-16T16:43:15;101578;;;-5.2;70.2
49583;BME280;36329;48.816;44.624;2023-02-16T16:46:31;101579;;;-4.9;69.7
49583;BME280;36329;48.816;44.624;2023-02-16T16:49:51;101578;;;-4.8;68.2
49583;BME280;36329;48.816;44.624;2023-02-16T16:56:49;101585;;;-5.2;69
49583;BME280;36329;48.816;44.624;2023-02-16T17:00:10;101591;;;-5.1;68.4
49583;BME280;36329;48.816;44.624;2023-02-16T17:03:24;101596;;;-4.9;67.5
49583;BME280;36329;48.816;44.624;2023-02-16T17:06:27;101590;;;-5.1;67.8
49583;BME280;36329;48.816;44.624;2023-02-16T17:09:29;101591;;;-5;67.7
49583;BME280;36329;48.816;44.624;2023-02-16T17:12:32;101592;;;-5.1;67.3
49583;BME280;36329;48.816;44.624;2023-02-16T17:15:37;101594;;;-5.1;67.2
49583;BME280;36329;48.816;44.624;2023-02-16T17:18:40;101593;;;-5;66.7
49583;BME280;36329;48.816;44.624;2023-02-16T17:21:43;101592;;;-5.1;65.8
49583;BME280;36329;48.816;44.624;2023-02-16T17:24:46;101593;;;-5;66
49583;BME280;36329;48.816;44.624;2023-02-16T17:27:48;101587;;;-5.3;65.5
49583;BME280;36329;48.816;44.624;2023-02-16T17:30:50;101580;;;-5.4;66.1
49583;BME280;36329;48.816;44.624;2023-02-16T17:33:52;101580;;;-5.3;65.6
49583;BME280;36329;48.816;44.624;2023-02-16T17:36:54;101577;;;-5.2;64.9
49583;BME280;36329;48.816;44.624;2023-02-16T17:39:56;101578;;;-5.1;63.9
49583;BME280;36329;48.816;44.624;2023-02-16T17:42:58;101577;;;-5.4;65.3
49583;BME280;36329;48.816;44.624;2023-02-16T17:46:01;101581;;;-5.3;64.6
49583;BME280;36329;48.816;44.624;2023-02-16T17:49:05;101581;;;-5.1;64.8
49583;BME280;36329;48.816;44.624;2023-02-16T17:52:17;101588;;;-5;63.6
49583;BME280;36329;48.816;44.624;2023-02-16T17:55:33;101584;;;-5;64.2
49583;BME280;36329;48.816;44.624;2023-02-16T17:58:45;101572;;;-5.2;64.4
49583;BME280;36329;48.816;44.624;2023-02-16T18:01:59;101588;;;-5.5;65.2
49583;BME280;36329;48.816;44.624;2023-02-16T18:05:20;101586;;;-5.6;65.9
49583;BME280;36329;48.816;44.624;2023-02-16T18:08:35;101588;;;-5.7;65.9